createdAt,value
2024-04-06T00:01:30.760Z,17.56
2024-04-06T00:06:30.749Z,17.54
2024-04-06T00:11:30.764Z,17.37
2024-04-06T00:16:30.753Z,17.25
2024-04-06T00:21:30.767Z,17.15
2024-04-06T00:26:30.769Z,17.08
2024-04-06T00:31:30.770Z,17.01
2024-04-06T00:36:30.772Z,16.99
2024-04-06T00:41:40.018Z,17.09
2024-04-06T00:46:30.777Z,17.1
2024-04-06T00:51:30.763Z,17.03
2024-04-06T00:56:30.778Z,17.02
2024-04-06T01:01:30.780Z,17
2024-04-06T01:06:30.782Z,16.84
2024-04-06T01:11:30.783Z,16.86
2024-04-06T01:16:30.772Z,16.93
2024-04-06T01:21:30.787Z,16.99
2024-04-06T01:26:30.775Z,17.12
2024-04-06T01:31:30.790Z,17.14
2024-04-06T01:36:30.791Z,17.01
2024-04-06T01:41:30.780Z,16.96
2024-04-06T01:46:30.795Z,16.53
2024-04-06T01:51:30.783Z,16.42
2024-04-06T01:56:30.798Z,16.21
2024-04-06T02:01:30.799Z,16.1
2024-04-06T02:06:30.801Z,15.9
2024-04-06T02:11:30.804Z,15.87
2024-04-06T02:16:30.791Z,15.9
2024-04-06T02:21:30.848Z,15.76
2024-04-06T02:26:30.794Z,15.67
2024-04-06T02:31:30.873Z,15.51
2024-04-06T02:36:30.810Z,15.4
2024-04-06T02:41:30.812Z,15.42
2024-04-06T02:46:30.813Z,15.28
2024-04-06T02:51:30.802Z,15.25
2024-04-06T02:56:30.815Z,15.29
2024-04-06T03:01:30.804Z,15.46
2024-04-06T03:06:30.819Z,15.4
2024-04-06T03:11:30.819Z,15.41
2024-04-06T03:16:30.809Z,15.45
2024-04-06T03:21:30.823Z,15.41
2024-04-06T03:26:30.810Z,15.33
2024-04-06T03:31:30.825Z,15.25
2024-04-06T03:36:30.828Z,15.36
2024-04-06T03:41:30.829Z,15.31
2024-04-06T03:46:30.830Z,15.33
2024-04-06T03:51:30.819Z,15.39
2024-04-06T03:56:30.834Z,15.23
2024-04-06T04:01:30.822Z,15.34
2024-04-06T04:06:30.837Z,15.21
2024-04-06T04:11:30.838Z,15.13
2024-04-06T04:16:30.888Z,14.99
2024-04-06T04:21:30.841Z,14.89
2024-04-06T04:26:30.829Z,14.74
2024-04-06T04:31:30.843Z,14.79
2024-04-06T04:36:30.830Z,14.81
2024-04-06T04:41:30.847Z,14.82
2024-04-06T04:46:30.848Z,14.69
2024-04-06T04:51:30.837Z,14.6
2024-04-06T04:56:30.852Z,14.55
2024-04-06T05:01:30.839Z,14.64
2024-04-06T05:06:30.853Z,14.61
2024-04-06T05:11:30.855Z,14.48
2024-04-06T05:16:30.857Z,14.38
2024-04-06T05:21:30.858Z,14.45
2024-04-06T05:26:30.846Z,14.44
2024-04-06T05:31:30.861Z,14.42
2024-04-06T05:36:30.849Z,14.49
2024-04-06T05:41:30.863Z,14.6
2024-04-06T05:46:30.865Z,14.88
2024-04-06T05:51:30.853Z,15
2024-04-06T05:56:30.867Z,15.05
2024-04-06T06:01:30.856Z,15.36
2024-04-06T06:06:30.870Z,15.41
2024-04-06T06:16:30.873Z,16.06
2024-04-06T06:21:30.874Z,16.14
2024-04-06T06:26:30.863Z,16.42
2024-04-06T06:31:30.919Z,16.81
2024-04-06T06:36:30.866Z,17.12
2024-04-06T06:41:30.881Z,17.42
2024-04-06T06:46:30.882Z,17.79
2024-04-06T06:51:30.884Z,18.06
2024-04-06T06:56:30.885Z,18.24
2024-04-06T07:01:30.874Z,18.58
2024-04-06T07:06:30.888Z,19.12
2024-04-06T07:11:30.876Z,20.07
2024-04-06T07:16:30.892Z,20.68
2024-04-06T07:21:30.894Z,21.09
2024-04-06T07:26:30.883Z,21.55
2024-04-06T07:31:30.898Z,22
2024-04-06T07:36:30.887Z,22.52
2024-04-06T07:41:30.901Z,23.16
2024-04-06T07:46:30.904Z,24.03
2024-04-06T07:51:30.906Z,31.54
2024-04-06T07:56:30.910Z,37.41
2024-04-06T08:01:30.899Z,42.48
2024-04-06T08:06:30.956Z,44.55
2024-04-06T08:11:30.904Z,46.25
2024-04-06T08:16:30.920Z,45.86
2024-04-06T08:21:30.923Z,42.83
2024-04-06T08:26:30.913Z,39.89
2024-04-06T08:31:30.929Z,38.93
2024-04-06T08:36:30.932Z,41.81
2024-04-06T08:41:30.934Z,43.23
2024-04-06T08:46:30.924Z,41.65
2024-04-06T08:51:30.941Z,40.34
2024-04-06T08:56:30.943Z,40.45
2024-04-06T09:01:30.934Z,38.41
2024-04-06T09:06:30.951Z,37.28
2024-04-06T09:11:30.939Z,36.29
2024-04-06T09:16:30.955Z,36.56
2024-04-06T09:21:30.958Z,38.3
2024-04-06T09:26:30.961Z,38.98
2024-04-06T09:31:30.963Z,39.03
2024-04-06T09:36:30.954Z,37
2024-04-06T09:41:30.969Z,37.48
2024-04-06T09:46:30.960Z,38.07
2024-04-06T09:51:30.975Z,39.32
2024-04-06T09:56:30.979Z,40.28
2024-04-06T10:01:30.969Z,39.05
2024-04-06T10:06:30.985Z,39.37
2024-04-06T10:11:30.974Z,38.41
2024-04-06T10:16:30.991Z,39.16
2024-04-06T10:21:30.980Z,38.59
2024-04-06T10:26:30.997Z,39.52
2024-04-06T10:31:30.999Z,40.71
2024-04-06T10:36:30.990Z,40.43
2024-04-06T10:41:31.070Z,38.45
2024-04-06T10:46:30.995Z,38.37
2024-04-06T10:51:31.010Z,37.37
2024-04-06T10:56:31.014Z,37.75
2024-04-06T11:01:31.017Z,35.84
2024-04-06T11:06:31.020Z,36.5
2024-04-06T11:11:31.010Z,36.22
2024-04-06T11:16:31.026Z,36.41
2024-04-06T11:21:31.016Z,35.05
2024-04-06T11:26:31.032Z,34.54
2024-04-06T11:31:31.035Z,35.43
2024-04-06T11:36:31.025Z,34.73
2024-04-06T11:41:31.041Z,33.88
2024-04-06T11:46:31.030Z,33.12
2024-04-06T11:51:31.047Z,33.32
2024-04-06T11:56:31.049Z,33.21
2024-04-06T12:01:31.052Z,33.82
2024-04-06T12:06:31.055Z,34.33
2024-04-06T12:11:31.045Z,34.57
2024-04-06T12:16:31.127Z,35.03
2024-04-06T12:21:31.051Z,34.21
2024-04-06T12:26:31.067Z,33.83
2024-04-06T12:31:31.069Z,33.25
2024-04-06T12:36:31.121Z,33.68
2024-04-06T12:41:31.077Z,33.4
2024-04-06T12:46:31.066Z,33.81
2024-04-06T12:51:31.080Z,34.18
2024-04-06T12:56:31.071Z,34.45
2024-04-06T13:01:31.087Z,34.55
2024-04-06T13:06:31.090Z,34.59
2024-04-06T13:11:31.080Z,34.09
2024-04-06T13:16:31.096Z,34.7
2024-04-06T13:21:31.085Z,35.58
2024-04-06T13:26:31.102Z,35.43
2024-04-06T13:31:31.105Z,35.14
2024-04-06T13:36:31.108Z,35.32
2024-04-06T13:41:31.112Z,35.58
2024-04-06T13:46:31.101Z,36
2024-04-06T13:51:31.117Z,35.7
2024-04-06T13:56:31.106Z,35
2024-04-06T14:01:31.123Z,35.47
2024-04-06T14:06:31.125Z,36.31
2024-04-06T14:11:31.153Z,37.28
2024-04-06T14:16:31.131Z,37.13
2024-04-06T14:21:31.122Z,37.61
2024-04-06T14:26:31.138Z,37.47
2024-04-06T14:31:31.141Z,37.34
2024-04-06T14:36:31.144Z,37.41
2024-04-06T14:41:31.170Z,37.25
2024-04-06T14:46:31.137Z,36.41
2024-04-06T14:51:31.153Z,35.91
2024-04-06T14:56:31.142Z,34.84
2024-04-06T15:01:31.159Z,34.57
2024-04-06T15:06:31.161Z,34
2024-04-06T15:11:31.165Z,33.27
2024-04-06T15:16:31.166Z,32.95
2024-04-06T15:21:31.158Z,32.84
2024-04-06T15:26:31.173Z,32.93
2024-04-06T15:31:31.163Z,33.02
2024-04-06T15:36:31.179Z,33.02
2024-04-06T15:41:31.181Z,32.72
2024-04-06T15:46:31.172Z,32.48
2024-04-06T15:51:31.188Z,32.41
2024-04-06T15:56:31.177Z,32.4
2024-04-06T16:01:31.194Z,32.27
2024-04-06T16:06:40.455Z,32.45
2024-04-06T16:11:31.199Z,32.07
2024-04-06T16:16:31.201Z,32.09
2024-04-06T16:21:31.192Z,31.79
2024-04-06T16:26:31.207Z,32.29
2024-04-06T16:31:31.196Z,32.34
2024-04-06T16:36:31.214Z,32.06
2024-04-06T16:41:31.217Z,31.37
2024-04-06T16:46:31.207Z,30.87
2024-04-06T16:51:31.222Z,30.41
2024-04-06T16:56:31.212Z,30.17
2024-04-06T17:01:31.228Z,29.89
2024-04-06T17:06:31.217Z,29.57
2024-04-06T17:11:31.233Z,29.02
2024-04-06T17:16:31.236Z,28.64
2024-04-06T17:21:31.226Z,28.37
2024-04-06T17:26:31.292Z,28.26
2024-04-06T17:31:31.229Z,28.1
2024-04-06T17:36:31.246Z,27.95
2024-04-06T17:41:31.248Z,27.14
2024-04-06T17:46:31.252Z,26.29
2024-04-06T17:51:31.253Z,25.68
2024-04-06T17:56:31.244Z,25.34
2024-04-06T18:01:31.258Z,25.11
2024-04-06T18:06:31.246Z,25.14
2024-04-06T18:11:31.264Z,24.54
2024-04-06T18:16:31.266Z,24.01
2024-04-06T18:21:31.256Z,23.99
2024-04-06T18:26:31.272Z,23.88
2024-04-06T18:31:31.260Z,23.82
2024-04-06T18:36:31.274Z,23.68
2024-04-06T18:41:31.277Z,23.41
2024-04-06T18:46:31.280Z,23.01
2024-04-06T18:51:31.282Z,23.06
2024-04-06T18:56:31.271Z,22.82
2024-04-06T19:01:31.328Z,22.69
2024-04-06T19:06:31.275Z,22.14
2024-04-06T19:11:31.291Z,22.09
2024-04-06T19:16:31.292Z,22.16
2024-04-06T19:21:31.295Z,21.95
2024-04-06T19:26:31.297Z,21.76
2024-04-06T19:31:31.286Z,21.73
2024-04-06T19:36:31.300Z,21.58
2024-04-06T19:41:31.290Z,21.35
2024-04-06T19:46:31.305Z,21.09
2024-04-06T19:51:31.307Z,20.85
2024-04-06T19:56:31.297Z,20.7
2024-04-06T20:01:31.311Z,20.57
2024-04-06T20:06:31.300Z,20.37
2024-04-06T20:11:31.314Z,20.19
2024-04-06T20:16:31.317Z,20.03
2024-04-06T20:21:31.319Z,19.85
2024-04-06T20:26:31.321Z,19.81
2024-04-06T20:31:31.310Z,19.73
2024-04-06T20:36:31.325Z,19.52
2024-04-06T20:41:31.313Z,19.35
2024-04-06T20:46:31.329Z,19.37
2024-04-06T20:51:31.331Z,19.28
2024-04-06T20:56:31.357Z,19.16
2024-04-06T21:01:31.334Z,19.08
2024-04-06T21:06:31.323Z,19.11
2024-04-06T21:11:31.338Z,19.01
2024-04-06T21:16:31.326Z,18.79
2024-04-06T21:21:31.342Z,18.44
2024-04-06T21:26:31.350Z,18.31
2024-04-06T21:31:31.333Z,18.09
2024-04-06T21:36:31.347Z,17.95
2024-04-06T21:41:31.335Z,17.79
2024-04-06T21:46:31.349Z,17.7
2024-04-06T21:51:31.351Z,17.68
2024-04-06T21:56:31.354Z,17.65
2024-04-06T22:01:31.355Z,17.61
2024-04-06T22:06:31.345Z,17.7
2024-04-06T22:11:31.359Z,17.75
2024-04-06T22:16:31.347Z,17.75
2024-04-06T22:21:31.362Z,17.7
2024-04-06T22:26:31.363Z,17.62
2024-04-06T22:31:31.353Z,17.6
2024-04-06T22:36:31.368Z,17.45
2024-04-06T22:41:31.356Z,17.23
2024-04-06T22:46:31.370Z,17.12
2024-04-06T22:51:31.373Z,17.04
2024-04-06T22:56:31.374Z,17.15
2024-04-06T23:01:31.376Z,17.09
2024-04-06T23:06:31.365Z,17.08
2024-04-06T23:11:31.421Z,16.92
2024-04-06T23:16:31.367Z,16.81
2024-04-06T23:21:31.382Z,16.79
2024-04-06T23:26:31.384Z,16.71
2024-04-06T23:31:31.410Z,16.56
2024-04-06T23:36:31.386Z,16.48
2024-04-06T23:41:31.376Z,16.45
2024-04-06T23:46:40.648Z,16.54
2024-04-06T23:51:31.396Z,16.52
2024-04-06T23:56:31.394Z,16.37
